Time;durP1;ratioP1;P1;durP2;ratioP2;P2;SDS_P1;SDS_P2;PMS_P1;PMS_P2;Temp;Humidity;BMP_temperature;BMP_pressure;BME280_temperature;BME280_humidity;BME280_pressure;Samples;Min_cycle;Max_cycle;Signal;HPM_P1;HPM_P2
2022/11/04 00:01:17;;;;;;;;;;;;;;;8.84;100.00;95247.88;5098187;28;19924;-80
2022/11/04 00:03:45;;;;;;;;;;;;;;;8.84;100.00;95253.28;5099230;28;19931;-82
2022/11/04 00:06:11;;;;;;;;;;;;;;;9.01;100.00;95252.31;5103146;28;19930;-79
2022/11/04 00:08:37;;;;;;;;;;;;;;;9.10;98.84;95261.97;5103627;28;20556;-82
2022/11/04 00:13:48;;;;;;;;;;;;;;;9.34;96.19;95280.28;5101707;28;19946;-81
2022/11/04 00:19:01;;;;;;;;;;;;;;;9.70;93.02;95297.75;5103519;28;19946;-80
2022/11/04 00:29:40;;;;;;;;;;;;;;;10.25;87.36;95318.22;5100836;28;19931;-81
2022/11/04 00:34:58;;;;;;;;;;;;;;;10.35;86.91;95331.38;5065340;28;19925;-80
2022/11/04 00:37:24;;;;;;;;;;;;;;;10.33;86.67;95335.56;5096143;28;19924;-78
2022/11/04 00:39:51;;;;;;;;;;;;;;;10.44;85.65;95331.28;5107454;28;19928;-82
2022/11/04 00:42:17;;;;;;;;;;;;;;;10.46;84.96;95339.88;5104519;28;19924;-81
2022/11/04 00:44:44;;;;;;;;;;;;;;;10.52;84.97;95335.78;5104566;28;19924;-80
2022/11/04 00:47:10;;;;;;;;;;;;;;;10.55;84.82;95343.28;5104411;28;19924;-84
2022/11/04 00:49:36;;;;;;;;;;;;;;;10.61;83.22;95341.91;5108088;28;20416;-81
2022/11/04 00:52:05;;;;;;;;;;;;;;;10.63;82.83;95344.28;5105625;28;19925;-83
2022/11/04 00:54:31;;;;;;;;;;;;;;;10.65;82.10;95342.81;5105950;28;19979;-82
2022/11/04 00:56:57;;;;;;;;;;;;;;;10.65;81.32;95347.47;5106368;28;19999;-81
2022/11/04 00:59:24;;;;;;;;;;;;;;;10.67;80.89;95342.47;5104411;28;19931;-81
2022/11/04 01:01:50;;;;;;;;;;;;;;;10.63;81.47;95347.78;5102168;28;19935;-80
2022/11/04 01:04:17;;;;;;;;;;;;;;;10.64;80.79;95354.81;5101674;28;19925;-82
2022/11/04 01:06:43;;;;;;;;;;;;;;;10.68;80.58;95353.00;5100788;28;20327;-82
2022/11/04 01:09:12;;;;;;;;;;;;;;;10.64;80.01;95365.69;5094581;22;19928;-77
2022/11/04 01:11:39;;;;;;;;;;;;;;;10.66;80.65;95374.34;5075505;28;20024;-78
2022/11/04 01:14:05;;;;;;;;;;;;;;;10.60;81.12;95374.91;5074934;28;19924;-75
2022/11/04 01:16:33;;;;;;;;;;;;;;;10.60;81.59;95374.91;5072214;28;20288;-76
2022/11/04 01:18:59;;;;;;;;;;;;;;;10.51;81.52;95385.13;5075637;28;19931;-76
2022/11/04 01:21:26;;;;;;;;;;;;;;;10.40;83.13;95392.94;5074984;28;19924;-76
2022/11/04 01:23:52;;;;;;;;;;;;;;;10.34;82.86;95389.66;5075574;28;19929;-77
2022/11/04 01:26:21;;;;;;;;;;;;;;;10.26;82.78;95387.84;5074948;28;19947;-78
2022/11/04 01:28:48;;;;;;;;;;;;;;;10.10;84.92;95390.41;5074439;28;19924;-76
2022/11/04 01:31:16;;;;;;;;;;;;;;;9.90;86.98;95404.84;5073735;28;19924;-75
2022/11/04 01:33:43;;;;;;;;;;;;;;;9.74;88.07;95407.44;5074488;28;19935;-75
2022/11/04 01:36:10;;;;;;;;;;;;;;;9.60;90.28;95402.28;5073344;28;20383;-78
2022/11/04 01:38:36;;;;;;;;;;;;;;;9.49;91.74;95406.53;5073704;28;19928;-77
2022/11/04 01:41:03;;;;;;;;;;;;;;;9.32;93.90;95406.69;5073530;28;20272;-79
2022/11/04 01:43:44;;;;;;;;;;;;;;;9.22;94.86;95405.19;5074159;28;19925;-78
2022/11/04 01:46:11;;;;;;;;;;;;;;;9.11;96.12;95402.06;5075299;28;19963;-77
2022/11/04 01:48:38;;;;;;;;;;;;;;;9.09;97.02;95403.53;5073749;28;19950;-74
2022/11/04 01:51:05;;;;;;;;;;;;;;;8.99;98.47;95396.59;5073586;28;19935;-78
2022/11/04 01:53:36;;;;;;;;;;;;;;;8.90;99.55;95395.84;5073397;28;20002;-77
2022/11/04 01:56:10;;;;;;;;;;;;;;;8.81;100.00;95392.38;5066224;28;19925;-77
2022/11/04 01:58:39;;;;;;;;;;;;;;;8.76;100.00;95389.88;5062594;28;19924;-78
2022/11/04 02:01:10;;;;;;;;;;;;;;;8.75;100.00;95391.00;5072955;28;19925;-77
2022/11/04 02:03:38;;;;;;;;;;;;;;;8.69;100.00;95376.81;5071428;28;19936;-79
2022/11/04 02:06:07;;;;;;;;;;;;;;;8.64;100.00;95393.28;5073636;28;19925;-79
2022/11/04 02:08:35;;;;;;;;;;;;;;;8.61;100.00;95378.47;5073076;28;19924;-78
2022/11/04 02:11:02;;;;;;;;;;;;;;;8.61;100.00;95373.06;5073554;28;19929;-80
2022/11/04 02:13:29;;;;;;;;;;;;;;;8.56;100.00;95375.97;5072925;28;20291;-77
2022/11/04 02:15:59;;;;;;;;;;;;;;;8.50;100.00;95368.31;5075058;28;19928;-77
2022/11/04 02:18:34;;;;;;;;;;;;;;;8.47;100.00;95361.63;5072690;28;19924;-77
2022/11/04 02:21:14;;;;;;;;;;;;;;;8.44;100.00;95366.91;5072768;28;19925;-77
2022/11/04 02:23:55;;;;;;;;;;;;;;;8.41;100.00;95362.97;5074912;28;20279;-77
2022/11/04 02:26:37;;;;;;;;;;;;;;;8.45;100.00;95372.00;5072235;28;19932;-77
2022/11/04 02:29:15;;;;;;;;;;;;;;;8.47;100.00;95361.63;5076988;28;19931;-75
2022/11/04 02:31:45;;;;;;;;;;;;;;;8.54;99.84;95366.53;5077609;28;20016;-77
2022/11/04 02:34:16;;;;;;;;;;;;;;;8.57;98.89;95353.13;5076480;28;19978;-77
2022/11/04 02:36:46;;;;;;;;;;;;;;;8.57;98.65;95361.25;5076195;28;19928;-77
2022/11/04 02:39:29;;;;;;;;;;;;;;;8.62;97.52;95366.50;5075259;28;19928;-77
2022/11/04 02:41:57;;;;;;;;;;;;;;;8.72;97.21;95372.63;5076036;28;19931;-77
2022/11/04 02:44:30;;;;;;;;;;;;;;;8.67;97.34;95376.38;5075601;28;20290;-76
2022/11/04 02:46:59;;;;;;;;;;;;;;;8.70;97.37;95370.25;5078931;28;19924;-77
2022/11/04 02:49:29;;;;;;;;;;;;;;;8.68;96.83;95374.44;5075597;28;19947;-76
2022/11/04 02:51:58;;;;;;;;;;;;;;;8.67;96.76;95375.56;5075356;28;19928;-75
2022/11/04 02:54:28;;;;;;;;;;;;;;;8.65;96.70;95367.75;5075275;28;19931;-77
2022/11/04 02:56:56;;;;;;;;;;;;;;;8.68;96.16;95377.16;5074742;28;20393;-77
2022/11/04 02:59:28;;;;;;;;;;;;;;;8.70;94.73;95374.91;5056358;28;19954;-76
2022/11/04 03:01:56;;;;;;;;;;;;;;;8.84;94.88;95380.88;5074348;28;19925;-75
2022/11/04 03:04:26;;;;;;;;;;;;;;;8.76;93.98;95389.88;5073698;28;19931;-76
2022/11/04 03:06:54;;;;;;;;;;;;;;;8.73;93.66;95387.81;5074667;28;19928;-75
2022/11/04 03:09:21;;;;;;;;;;;;;;;8.74;93.02;95390.19;5073496;28;19925;-78
2022/11/04 03:11:50;;;;;;;;;;;;;;;8.77;92.68;95388.72;5074553;28;20015;-77
2022/11/04 03:14:19;;;;;;;;;;;;;;;8.79;92.30;95381.06;5073613;28;19932;-76
2022/11/04 03:16:48;;;;;;;;;;;;;;;8.86;92.43;95379.41;5077112;28;19931;-78
2022/11/04 03:19:18;;;;;;;;;;;;;;;8.80;91.82;95379.94;5073442;28;19932;-80
2022/11/04 03:21:48;;;;;;;;;;;;;;;8.91;91.80;95391.22;5075822;28;19924;-78
2022/11/04 03:24:14;;;;;;;;;;;;;;;8.92;91.24;95385.44;5074244;28;19924;-77
2022/11/04 03:26:44;;;;;;;;;;;;;;;8.94;91.53;95385.91;5075102;28;19924;-76
2022/11/04 03:29:18;;;;;;;;;;;;;;;8.86;90.97;95384.03;5078836;28;19925;-76
2022/11/04 03:31:49;;;;;;;;;;;;;;;8.82;91.05;95385.81;5077478;28;19946;-77
2022/11/04 03:34:16;;;;;;;;;;;;;;;8.87;91.26;95380.19;5074767;28;19925;-78
2022/11/04 03:36:43;;;;;;;;;;;;;;;8.73;91.83;95379.69;5076707;28;19933;-78
2022/11/04 03:39:10;;;;;;;;;;;;;;;8.79;91.48;95378.34;5076467;28;20307;-79
2022/11/04 03:41:39;;;;;;;;;;;;;;;8.71;91.88;95382.72;5078050;28;19947;-75
2022/11/04 03:44:06;;;;;;;;;;;;;;;8.79;91.40;95383.78;5083222;28;19948;-76
2022/11/04 03:46:32;;;;;;;;;;;;;;;8.68;91.14;95385.31;5066978;28;19939;-77
2022/11/04 03:48:59;;;;;;;;;;;;;;;8.67;91.12;95387.22;5083376;28;19925;-76
2022/11/04 03:51:27;;;;;;;;;;;;;;;8.90;91.23;95384.97;5079820;28;20354;-77
2022/11/04 03:53:54;;;;;;;;;;;;;;;8.86;90.79;95384.03;5058974;28;20662;-78
2022/11/04 03:56:28;;;;;;;;;;;;;;;8.92;90.42;95377.28;5039928;28;19931;-77
2022/11/04 03:59:03;;;;;;;;;;;;;;;8.88;90.12;95376.38;5058232;28;19925;-79
2022/11/04 04:01:33;;;;;;;;;;;;;;;9.00;89.92;95373.72;5060405;28;19925;-80
2022/11/04 04:04:02;;;;;;;;;;;;;;;8.73;89.76;95372.34;5077680;28;20387;-78
2022/11/04 04:06:33;;;;;;;;;;;;;;;8.77;89.04;95370.56;5077916;28;19950;-79
2022/11/04 04:09:05;;;;;;;;;;;;;;;8.74;89.14;95371.19;5077213;28;19932;-79
2022/11/04 04:11:36;;;;;;;;;;;;;;;8.74;89.32;95367.69;5076502;28;19932;-79
2022/11/04 04:14:06;;;;;;;;;;;;;;;8.65;88.89;95372.38;5076237;28;19935;-78
2022/11/04 04:16:34;;;;;;;;;;;;;;;8.70;88.80;95369.47;5075813;28;19947;-78
2022/11/04 04:19:03;;;;;;;;;;;;;;;8.63;88.43;95362.66;5075037;28;20317;-79
2022/11/04 04:21:33;;;;;;;;;;;;;;;8.66;88.31;95363.09;5075845;28;19924;-79
2022/11/04 04:29:29;;;;;;;;;;;;;;;8.63;86.74;95349.09;5068796;28;19947;-77
2022/11/04 04:31:57;;;;;;;;;;;;;;;8.69;86.10;95351.59;5075705;28;19928;-78
2022/11/04 04:34:25;;;;;;;;;;;;;;;8.67;85.75;95354.66;5077397;28;19959;-78
2022/11/04 04:36:56;;;;;;;;;;;;;;;8.63;85.71;95357.22;5076865;28;19931;-78
2022/11/04 04:45:02;;;;;;;;;;;;;;;8.70;85.40;95350.47;5077815;28;20058;-78
2022/11/04 04:47:31;;;;;;;;;;;;;;;8.77;84.77;95337.16;5058087;28;20035;-79
2022/11/04 04:49:59;;;;;;;;;;;;;;;8.65;84.19;95350.66;5077549;28;20282;-78
2022/11/04 04:52:27;;;;;;;;;;;;;;;8.71;84.42;95349.34;5078729;28;19963;-77
2022/11/04 04:54:54;;;;;;;;;;;;;;;8.76;83.84;95351.88;5079357;28;19925;-77
2022/11/04 04:57:21;;;;;;;;;;;;;;;8.70;83.13;95353.97;5078377;28;19928;-78
2022/11/04 04:59:47;;;;;;;;;;;;;;;8.70;82.34;95375.69;5078535;28;19930;-78
2022/11/04 05:02:14;;;;;;;;;;;;;;;8.61;82.85;95386.63;5077880;28;19931;-78
2022/11/04 05:04:40;;;;;;;;;;;;;;;8.65;83.67;95384.03;5078182;28;19924;-78
2022/11/04 05:07:08;;;;;;;;;;;;;;;8.57;83.61;95393.81;5077488;28;20007;-78
2022/11/04 05:09:36;;;;;;;;;;;;;;;8.63;83.11;95381.66;5077814;28;19924;-78
2022/11/04 05:12:03;;;;;;;;;;;;;;;8.76;83.21;95379.00;5077690;28;19935;-78
2022/11/04 05:14:29;;;;;;;;;;;;;;;8.80;82.88;95380.72;5078934;28;20418;-77
2022/11/04 05:16:56;;;;;;;;;;;;;;;8.72;82.55;95386.22;5078861;28;19931;-78
2022/11/04 05:19:22;;;;;;;;;;;;;;;8.76;82.58;95379.78;5077060;28;19925;-77
2022/11/04 05:21:49;;;;;;;;;;;;;;;8.89;82.61;95381.47;5078359;28;20011;-77
2022/11/04 05:24:15;;;;;;;;;;;;;;;8.75;82.54;95386.34;5078642;28;19924;-77
2022/11/04 05:26:43;;;;;;;;;;;;;;;8.70;82.51;95389.25;5077960;28;19991;-77
2022/11/04 05:29:11;;;;;;;;;;;;;;;8.62;82.79;95390.91;5077576;28;19924;-77
2022/11/04 05:31:37;;;;;;;;;;;;;;;8.54;83.82;95386.31;5079224;28;19932;-77
2022/11/04 05:34:04;;;;;;;;;;;;;;;8.55;84.23;95385.19;5077312;28;19932;-78
2022/11/04 05:36:31;;;;;;;;;;;;;;;8.43;85.44;95376.19;5076833;28;19924;-77
2022/11/04 05:38:58;;;;;;;;;;;;;;;8.24;86.18;95373.84;5058296;28;19931;-76
2022/11/04 05:41:27;;;;;;;;;;;;;;;8.16;88.01;95372.00;5076770;28;19930;-76
2022/11/04 05:43:56;;;;;;;;;;;;;;;8.03;88.68;95380.00;5075803;28;19935;-78
2022/11/04 05:46:23;;;;;;;;;;;;;;;7.95;90.30;95375.41;5072032;28;19930;-78
2022/11/04 05:48:49;;;;;;;;;;;;;;;7.86;90.96;95385.50;5076333;28;19924;-77
2022/11/04 05:51:17;;;;;;;;;;;;;;;7.75;92.35;95392.38;5074019;28;19932;-77
2022/11/04 05:53:44;;;;;;;;;;;;;;;7.73;92.92;95397.34;5076170;28;19928;-77
2022/11/04 05:56:11;;;;;;;;;;;;;;;7.64;94.94;95399.28;5076383;28;20527;-77
2022/11/04 05:58:37;;;;;;;;;;;;;;;7.49;96.51;95414.09;5076198;28;20007;-77
2022/11/04 06:01:23;;;;;;;;;;;;;;;7.40;98.56;95405.97;5076341;28;19935;-76
2022/11/04 06:03:50;;;;;;;;;;;;;;;7.34;99.09;95401.84;5079181;28;19931;-78
2022/11/04 06:06:17;;;;;;;;;;;;;;;7.27;99.61;95406.97;5068328;28;19947;-77
2022/11/04 06:08:43;;;;;;;;;;;;;;;7.30;100.00;95406.31;5080013;28;19929;-77
2022/11/04 06:11:10;;;;;;;;;;;;;;;7.42;100.00;95400.28;5078438;28;20375;-77
2022/11/04 06:13:36;;;;;;;;;;;;;;;7.40;100.00;95408.69;5080336;28;19963;-81
2022/11/04 06:16:03;;;;;;;;;;;;;;;7.50;100.00;95413.00;5083467;28;19931;-79
2022/11/04 06:18:31;;;;;;;;;;;;;;;7.51;100.00;95420.00;5086813;28;20019;-77
2022/11/04 06:21:08;;;;;;;;;;;;;;;7.42;100.00;95420.03;5087752;28;19980;-79
2022/11/04 06:23:35;;;;;;;;;;;;;;;7.37;100.00;95417.47;5084677;28;19931;-78
2022/11/04 06:26:01;;;;;;;;;;;;;;;7.48;100.00;95418.72;5084921;28;19924;-78
2022/11/04 06:28:27;;;;;;;;;;;;;;;7.35;100.00;95430.53;5084277;28;19924;-77
2022/11/04 06:30:54;;;;;;;;;;;;;;;7.39;100.00;95434.19;5082739;28;19930;-77
2022/11/04 06:33:20;;;;;;;;;;;;;;;7.23;100.00;95450.13;5079802;28;19943;-76
2022/11/04 06:35:48;;;;;;;;;;;;;;;7.32;100.00;95452.84;5080964;28;19928;-78
2022/11/04 06:38:15;;;;;;;;;;;;;;;7.18;100.00;95452.19;5077559;28;19925;-78
2022/11/04 06:40:41;;;;;;;;;;;;;;;7.24;100.00;95445.50;5078646;28;19924;-78
2022/11/04 06:43:08;;;;;;;;;;;;;;;7.26;100.00;95451.41;5078647;28;19931;-78
2022/11/04 06:45:34;;;;;;;;;;;;;;;7.15;100.00;95434.69;5079059;28;20023;-78
2022/11/04 06:48:00;;;;;;;;;;;;;;;7.15;100.00;95434.69;5078328;28;19970;-77
2022/11/04 06:50:27;;;;;;;;;;;;;;;7.14;100.00;95443.09;5078013;28;19931;-77
2022/11/04 06:52:54;;;;;;;;;;;;;;;7.12;100.00;95442.63;5078101;28;20015;-78
2022/11/04 06:55:21;;;;;;;;;;;;;;;7.00;100.00;95441.38;5077083;28;19931;-77
2022/11/04 06:57:48;;;;;;;;;;;;;;;7.04;100.00;95442.31;5078612;28;19925;-77
2022/11/04 07:00:14;;;;;;;;;;;;;;;6.91;100.00;95437.84;5077397;28;19951;-77
2022/11/04 07:02:41;;;;;;;;;;;;;;;7.00;100.00;95430.53;5077703;28;19931;-78
2022/11/04 07:05:08;;;;;;;;;;;;;;;7.12;100.00;95415.56;5077302;28;19924;-78
2022/11/04 07:07:34;;;;;;;;;;;;;;;7.13;100.00;95404.41;5077620;28;19931;-77
2022/11/04 07:10:02;;;;;;;;;;;;;;;7.05;100.00;95403.31;5077668;28;19925;-77
2022/11/04 07:12:28;;;;;;;;;;;;;;;6.91;100.00;95410.00;5076606;28;19924;-76
2022/11/04 07:14:55;;;;;;;;;;;;;;;7.00;100.00;95418.91;5074883;28;19924;-76
2022/11/04 07:17:22;;;;;;;;;;;;;;;7.16;100.00;95430.06;5074093;28;19932;-77
2022/11/04 07:19:48;;;;;;;;;;;;;;;7.11;100.00;95430.22;5077185;28;20548;-79
2022/11/04 07:22:15;;;;;;;;;;;;;;;7.04;100.00;95434.19;5076183;28;19932;-79
2022/11/04 07:24:42;;;;;;;;;;;;;;;7.20;100.00;95439.13;5075366;28;19925;-79
2022/11/04 07:27:10;;;;;;;;;;;;;;;7.33;100.00;95443.59;5074565;28;19924;-78
2022/11/04 07:29:37;;;;;;;;;;;;;;;7.45;100.00;95451.88;5076373;28;19978;-78
2022/11/04 07:32:03;;;;;;;;;;;;;;;7.47;100.00;95452.38;5077415;28;19940;-79
2022/11/04 07:34:30;;;;;;;;;;;;;;;7.56;100.00;95452.34;5078342;28;19984;-78
2022/11/04 07:36:56;;;;;;;;;;;;;;;7.61;100.00;95459.50;5078033;28;20302;-78
2022/11/04 07:39:22;;;;;;;;;;;;;;;7.56;100.00;95463.97;5077573;28;19931;-78
2022/11/04 07:41:49;;;;;;;;;;;;;;;7.57;100.00;95476.41;5077069;28;19930;-79
2022/11/04 07:44:17;;;;;;;;;;;;;;;7.47;100.00;95484.88;5075996;28;19925;-78
2022/11/04 07:46:43;;;;;;;;;;;;;;;7.47;100.00;95494.91;5076124;28;19925;-79
2022/11/04 07:49:10;;;;;;;;;;;;;;;7.53;100.00;95497.13;5073681;28;19924;-79
2022/11/04 07:51:36;;;;;;;;;;;;;;;7.49;100.00;95496.16;5074108;28;19925;-80
2022/11/04 07:54:03;;;;;;;;;;;;;;;7.46;100.00;95485.97;5074501;28;19924;-79
2022/11/04 07:56:29;;;;;;;;;;;;;;;7.43;100.00;95493.94;5074125;28;19928;-79
2022/11/04 07:58:56;;;;;;;;;;;;;;;7.49;100.00;95493.47;5074286;28;19947;-78
2022/11/04 08:01:24;;;;;;;;;;;;;;;7.38;100.00;95488.69;5073743;28;19924;-80
2022/11/04 08:03:50;;;;;;;;;;;;;;;7.29;100.00;95497.59;5074864;28;20370;-79
2022/11/04 08:06:18;;;;;;;;;;;;;;;7.37;100.00;95506.06;5073307;28;19924;-79
2022/11/04 08:08:44;;;;;;;;;;;;;;;7.40;100.00;95495.38;5073761;28;19929;-79
2022/11/04 08:11:12;;;;;;;;;;;;;;;7.43;100.00;95475.78;5073186;28;19995;-79
2022/11/04 08:13:38;;;;;;;;;;;;;;;7.48;100.00;95472.13;5073292;28;19925;-79
2022/11/04 08:16:06;;;;;;;;;;;;;;;7.50;100.00;95470.66;5070882;28;20306;-79
2022/11/04 08:18:33;;;;;;;;;;;;;;;7.51;100.00;95457.91;5073203;28;20465;-79
2022/11/04 08:21:01;;;;;;;;;;;;;;;7.29;100.00;95448.84;5074535;28;20027;-78
2022/11/04 08:23:27;;;;;;;;;;;;;;;7.21;100.00;95459.69;5072887;28;19924;-78
2022/11/04 08:25:54;;;;;;;;;;;;;;;7.13;100.00;95452.34;5074491;28;19934;-80
2022/11/04 08:28:20;;;;;;;;;;;;;;;6.96;100.00;95445.81;5076414;28;20011;-78
2022/11/04 08:30:54;;;;;;;;;;;;;;;6.99;100.00;95450.56;5076847;28;20011;-78
2022/11/04 08:33:20;;;;;;;;;;;;;;;6.98;100.00;95432.75;5076484;28;19947;-78
2022/11/04 08:35:48;;;;;;;;;;;;;;;6.94;100.00;95421.00;5076352;28;19924;-79
2022/11/04 08:38:14;;;;;;;;;;;;;;;6.81;100.00;95411.09;5075752;28;20302;-80
2022/11/04 08:40:41;;;;;;;;;;;;;;;6.97;100.00;95417.63;5077039;28;19985;-78
2022/11/04 08:43:08;;;;;;;;;;;;;;;6.78;100.00;95428.72;5073333;28;19925;-79
2022/11/04 08:45:38;;;;;;;;;;;;;;;6.82;100.00;95423.50;5062226;28;19978;-79
2022/11/04 08:48:04;;;;;;;;;;;;;;;6.83;100.00;95435.91;5076333;28;19935;-78
2022/11/04 08:50:31;;;;;;;;;;;;;;;6.71;100.00;95438.44;5077051;28;19924;-78
2022/11/04 08:52:58;;;;;;;;;;;;;;;6.72;100.00;95434.63;5076622;28;19924;-78
2022/11/04 08:55:25;;;;;;;;;;;;;;;6.73;100.00;95423.50;5076312;28;20268;-79
2022/11/04 08:57:51;;;;;;;;;;;;;;;6.62;100.00;95416.78;5076970;28;19970;-79
2022/11/04 09:00:18;;;;;;;;;;;;;;;6.57;100.00;95413.44;5075622;28;19924;-78
2022/11/04 09:02:44;;;;;;;;;;;;;;;6.55;100.00;95413.75;5076443;28;19928;-78
2022/11/04 09:05:10;;;;;;;;;;;;;;;6.66;100.00;95414.25;5075999;28;20019;-79
2022/11/04 09:07:37;;;;;;;;;;;;;;;6.61;100.00;95412.47;5076045;28;19924;-78
2022/11/04 09:10:05;;;;;;;;;;;;;;;6.64;100.00;95419.19;5074947;28;19932;-78
2022/11/04 09:12:32;;;;;;;;;;;;;;;6.67;100.00;95415.84;5075504;28;20341;-78
2022/11/04 09:14:58;;;;;;;;;;;;;;;6.62;100.00;95408.66;5075700;28;19924;-79
2022/11/04 09:17:25;;;;;;;;;;;;;;;6.49;100.00;95404.97;5075383;28;19925;-79
2022/11/04 09:19:51;;;;;;;;;;;;;;;6.53;100.00;95388.94;5075130;28;19931;-80
2022/11/04 09:22:18;;;;;;;;;;;;;;;6.51;100.00;95391.94;5074685;28;19931;-80
2022/11/04 09:24:44;;;;;;;;;;;;;;;6.70;100.00;95398.97;5075800;28;19930;-78
2022/11/04 09:27:12;;;;;;;;;;;;;;;6.67;100.00;95413.13;5075480;28;19946;-79
2022/11/04 09:29:39;;;;;;;;;;;;;;;6.74;100.00;95421.59;5075679;28;19925;-79
2022/11/04 09:32:06;;;;;;;;;;;;;;;6.88;100.00;95414.09;5074462;28;20299;-80
2022/11/04 09:34:32;;;;;;;;;;;;;;;7.01;100.00;95413.19;5075814;28;19931;-80
2022/11/04 09:36:59;;;;;;;;;;;;;;;7.00;100.00;95406.19;5074347;28;19939;-78
2022/11/04 09:39:26;;;;;;;;;;;;;;;7.04;100.00;95401.69;5055279;28;20334;-79
2022/11/04 09:42:02;;;;;;;;;;;;;;;7.12;100.00;95399.31;5070969;28;19924;-79
2022/11/04 09:44:37;;;;;;;;;;;;;;;7.12;100.00;95404.75;5074002;28;20290;-80
2022/11/04 09:47:04;;;;;;;;;;;;;;;7.14;100.00;95406.00;5073678;28;19928;-79
2022/11/04 09:49:34;;;;;;;;;;;;;;;7.29;100.00;95405.53;5074072;28;19931;-78
2022/11/04 09:52:02;;;;;;;;;;;;;;;7.28;100.00;95406.63;5074134;28;19925;-78
2022/11/04 09:54:32;;;;;;;;;;;;;;;7.39;100.00;95387.34;5074560;28;19925;-78
2022/11/04 09:57:00;;;;;;;;;;;;;;;7.23;100.00;95389.75;5073065;28;19932;-79
2022/11/04 09:59:28;;;;;;;;;;;;;;;7.13;100.00;95396.28;5075449;28;19924;-78
2022/11/04 10:02:06;;;;;;;;;;;;;;;7.33;100.00;95408.38;5078179;28;20023;-80
2022/11/04 10:04:41;;;;;;;;;;;;;;;7.38;100.00;95405.53;5076847;28;19935;-79
2022/11/04 10:07:12;;;;;;;;;;;;;;;7.30;100.00;95403.59;5076016;28;19924;-79
2022/11/04 10:09:44;;;;;;;;;;;;;;;7.38;100.00;95402.81;5076412;28;19925;-79
2022/11/04 10:12:16;;;;;;;;;;;;;;;7.42;100.00;95394.84;5077709;28;19925;-78
2022/11/04 10:14:54;;;;;;;;;;;;;;;7.35;100.00;95392.59;5077653;28;19935;-80
2022/11/04 10:17:35;;;;;;;;;;;;;;;7.29;100.00;95397.41;5074066;28;19931;-78
2022/11/04 10:20:08;;;;;;;;;;;;;;;7.35;100.00;95402.66;5077607;28;19936;-80
2022/11/04 10:22:39;;;;;;;;;;;;;;;7.13;100.00;95400.91;5075061;28;20375;-79
2022/11/04 10:25:11;;;;;;;;;;;;;;;7.25;100.00;95392.94;5074278;28;19932;-78
2022/11/04 10:27:38;;;;;;;;;;;;;;;7.48;100.00;95386.22;5075490;28;19924;-79
2022/11/04 10:30:07;;;;;;;;;;;;;;;7.61;100.00;95391.78;5074628;28;19935;-79
2022/11/04 10:32:39;;;;;;;;;;;;;;;7.71;100.00;95396.84;5073524;28;20397;-78
2022/11/04 10:35:10;;;;;;;;;;;;;;;7.61;100.00;95383.66;5075999;28;20271;-78
2022/11/04 10:37:36;;;;;;;;;;;;;;;7.73;100.00;95370.25;5076445;28;19924;-78
2022/11/04 10:40:07;;;;;;;;;;;;;;;7.79;100.00;95368.94;5075890;28;19925;-79
2022/11/04 10:42:34;;;;;;;;;;;;;;;7.90;100.00;95356.63;5075152;28;19924;-78
2022/11/04 10:45:01;;;;;;;;;;;;;;;8.09;100.00;95356.22;5075053;28;19924;-79
2022/11/04 10:47:33;;;;;;;;;;;;;;;8.10;100.00;95358.63;5072793;28;19925;-79
2022/11/04 10:50:15;;;;;;;;;;;;;;;8.20;100.00;95346.59;5073738;28;19928;-79
2022/11/04 10:52:42;;;;;;;;;;;;;;;8.21;100.00;95340.06;5074440;28;19925;-79
2022/11/04 10:55:14;;;;;;;;;;;;;;;8.36;100.00;95344.16;5073594;28;19931;-79
2022/11/04 10:57:41;;;;;;;;;;;;;;;8.28;100.00;95344.97;5073115;28;19924;-78
2022/11/04 11:00:08;;;;;;;;;;;;;;;8.24;100.00;95346.72;5072431;28;19928;-80
2022/11/04 11:02:43;;;;;;;;;;;;;;;7.86;100.00;95347.53;5072993;28;19925;-78
2022/11/04 11:05:22;;;;;;;;;;;;;;;7.69;100.00;95334.84;5052889;28;19931;-78
2022/11/04 11:07:50;;;;;;;;;;;;;;;7.88;100.00;95331.75;5072647;28;19924;-79
2022/11/04 11:10:17;;;;;;;;;;;;;;;7.85;100.00;95329.69;5072219;28;19924;-80
2022/11/04 11:12:50;;;;;;;;;;;;;;;8.02;100.00;95342.38;5072921;28;20419;-79
2022/11/04 11:15:28;;;;;;;;;;;;;;;8.02;100.00;95343.16;5072806;28;19932;-80
2022/11/04 11:17:59;;;;;;;;;;;;;;;7.85;100.00;95351.38;5055529;28;20334;-79
2022/11/04 11:20:27;;;;;;;;;;;;;;;7.95;100.00;95347.53;5072469;28;19925;-80
2022/11/04 11:22:55;;;;;;;;;;;;;;;7.92;100.00;95351.66;5072855;28;20022;-80
2022/11/04 11:25:23;;;;;;;;;;;;;;;7.91;100.00;95355.50;5073223;28;19981;-79
2022/11/04 11:27:51;;;;;;;;;;;;;;;7.93;100.00;95358.66;5073774;28;20016;-79
2022/11/04 11:30:21;;;;;;;;;;;;;;;7.83;100.00;95364.47;5075047;28;19998;-79
2022/11/04 11:32:52;;;;;;;;;;;;;;;7.85;100.00;95367.66;5075398;28;19959;-78
2022/11/04 11:35:21;;;;;;;;;;;;;;;7.94;100.00;95371.13;5074041;28;19928;-80
2022/11/04 11:37:49;;;;;;;;;;;;;;;8.13;100.00;95380.75;5073247;28;19932;-79
2022/11/04 11:40:26;;;;;;;;;;;;;;;8.23;100.00;95378.47;5055100;28;19925;-79
2022/11/04 11:42:53;;;;;;;;;;;;;;;8.07;100.00;95374.72;5072964;28;19925;-80
2022/11/04 11:45:20;;;;;;;;;;;;;;;8.10;100.00;95380.31;5073000;28;19925;-79
2022/11/04 11:47:53;;;;;;;;;;;;;;;8.26;100.00;95377.06;5053467;28;19931;-79
2022/11/04 11:50:23;;;;;;;;;;;;;;;8.31;100.00;95374.16;5053097;28;19928;-81
2022/11/04 11:52:51;;;;;;;;;;;;;;;8.13;100.00;95364.50;5053203;28;19931;-80
2022/11/04 11:55:18;;;;;;;;;;;;;;;8.13;100.00;95353.66;5065017;28;19980;-80
2022/11/04 11:57:49;;;;;;;;;;;;;;;8.25;100.00;95364.63;5073198;28;19935;-79
2022/11/04 12:00:17;;;;;;;;;;;;;;;8.29;100.00;95370.94;5055427;28;19931;-79
2022/11/04 12:02:51;;;;;;;;;;;;;;;8.31;100.00;95374.16;5061204;28;20523;-81
2022/11/04 12:05:21;;;;;;;;;;;;;;;8.19;100.00;95374.03;5076903;28;19946;-80
2022/11/04 12:07:52;;;;;;;;;;;;;;;8.16;100.00;95366.56;5076701;28;19956;-79
2022/11/04 12:10:23;;;;;;;;;;;;;;;8.14;100.00;95366.88;5076086;28;19932;-78
2022/11/04 12:12:54;;;;;;;;;;;;;;;8.10;100.00;95364.03;5076653;28;20367;-79
2022/11/04 12:15:30;;;;;;;;;;;;;;;8.01;100.00;95374.13;5076171;28;20011;-79
2022/11/04 12:18:02;;;;;;;;;;;;;;;8.20;100.00;95378.34;5045293;28;19925;-79
2022/11/04 12:20:36;;;;;;;;;;;;;;;8.07;100.00;95375.53;5075420;28;19924;-80
2022/11/04 12:23:07;;;;;;;;;;;;;;;8.28;100.00;95374.78;5075007;28;19959;-79
2022/11/04 12:25:39;;;;;;;;;;;;;;;8.45;100.00;95380.16;5077604;28;19925;-78
2022/11/04 12:28:15;;;;;;;;;;;;;;;8.60;100.00;95382.28;5080971;28;19939;-79
2022/11/04 12:30:49;;;;;;;;;;;;;;;8.65;100.00;95377.81;5083212;28;19925;-78
2022/11/04 12:33:21;;;;;;;;;;;;;;;8.54;100.00;95382.81;5082615;28;19987;-79
2022/11/04 12:36:00;;;;;;;;;;;;;;;8.59;100.00;95377.22;5081290;28;19925;-79
2022/11/04 12:38:44;;;;;;;;;;;;;;;8.72;99.78;95378.06;5078691;28;20412;-79
2022/11/04 12:41:18;;;;;;;;;;;;;;;8.44;99.19;95373.13;5079746;28;19924;-79
2022/11/04 12:43:49;;;;;;;;;;;;;;;8.65;99.24;95364.25;5080424;28;19931;-79
2022/11/04 12:46:21;;;;;;;;;;;;;;;8.62;99.32;95373.84;5080482;28;19924;-80
2022/11/04 12:48:53;;;;;;;;;;;;;;;8.72;99.06;95386.22;5079961;28;19932;-80
2022/11/04 12:51:25;;;;;;;;;;;;;;;8.62;98.49;95398.28;5079004;28;19931;-80
2022/11/04 12:54:06;;;;;;;;;;;;;;;8.73;98.39;95401.41;5078987;28;19924;-79
2022/11/04 12:56:37;;;;;;;;;;;;;;;8.79;98.60;95410.94;5082251;28;19931;-79
2022/11/04 12:59:20;;;;;;;;;;;;;;;8.89;98.59;95415.97;5084310;28;19924;-80
2022/11/04 13:01:50;;;;;;;;;;;;;;;8.75;98.27;95418.13;5080598;28;19929;-79
2022/11/04 13:04:18;;;;;;;;;;;;;;;8.58;98.10;95427.97;5083914;28;19936;-78
2022/11/04 13:06:47;;;;;;;;;;;;;;;8.64;98.38;95425.88;5085140;28;19931;-78
2022/11/04 13:09:16;;;;;;;;;;;;;;;8.72;97.83;95426.91;5073981;28;19931;-79
2022/11/04 13:11:47;;;;;;;;;;;;;;;8.73;97.64;95428.53;5081582;28;19935;-77
2022/11/04 13:14:18;;;;;;;;;;;;;;;8.74;97.22;95430.91;5082380;28;19931;-78
2022/11/04 13:16:45;;;;;;;;;;;;;;;8.78;97.34;95421.00;5086312;28;19925;-78
2022/11/04 13:19:17;;;;;;;;;;;;;;;8.64;97.73;95417.72;5085740;28;19946;-79
2022/11/04 13:21:44;;;;;;;;;;;;;;;8.70;97.97;95419.13;5084032;28;19935;-78
2022/11/04 13:24:15;;;;;;;;;;;;;;;8.50;99.01;95415.22;5084952;28;19925;-79
2022/11/04 13:26:42;;;;;;;;;;;;;;;8.01;98.81;95409.34;5085691;28;19946;-77